sensor_id;sensor_type;location;lat;lon;timestamp;P1;durP1;ratioP1;P2;durP2;ratioP2
80392;SDS011;69719;45.544;10.218;2023-07-31T00:00:58;7.40;;;3.10;;
80392;SDS011;69719;45.544;10.218;2023-07-31T00:03:24;6.97;;;3.08;;
80392;SDS011;69719;45.544;10.218;2023-07-31T00:05:49;3.78;;;2.55;;
80392;SDS011;69719;45.544;10.218;2023-07-31T00:08:15;5.00;;;3.03;;
80392;SDS011;69719;45.544;10.218;2023-07-31T00:10:40;8.02;;;3.70;;
80392;SDS011;69719;45.544;10.218;2023-07-31T00:13:06;4.13;;;3.13;;
80392;SDS011;69719;45.544;10.218;2023-07-31T00:15:31;6.03;;;3.97;;
80392;SDS011;69719;45.544;10.218;2023-07-31T00:17:57;8.10;;;4.07;;
80392;SDS011;69719;45.544;10.218;2023-07-31T00:20:22;7.18;;;3.70;;
80392;SDS011;69719;45.544;10.218;2023-07-31T00:22:48;11.32;;;5.53;;
80392;SDS011;69719;45.544;10.218;2023-07-31T00:25:13;3.95;;;3.30;;
80392;SDS011;69719;45.544;10.218;2023-07-31T00:27:39;6.18;;;3.40;;
80392;SDS011;69719;45.544;10.218;2023-07-31T00:30:09;4.10;;;3.05;;
80392;SDS011;69719;45.544;10.218;2023-07-31T00:32:35;7.03;;;3.33;;
80392;SDS011;69719;45.544;10.218;2023-07-31T00:35:01;7.50;;;4.30;;
80392;SDS011;69719;45.544;10.218;2023-07-31T00:37:26;7.13;;;3.28;;
80392;SDS011;69719;45.544;10.218;2023-07-31T00:39:52;5.25;;;3.45;;
80392;SDS011;69719;45.544;10.218;2023-07-31T00:42:18;6.47;;;3.10;;
80392;SDS011;69719;45.544;10.218;2023-07-31T00:44:43;5.38;;;3.20;;
80392;SDS011;69719;45.544;10.218;2023-07-31T00:47:09;7.80;;;3.70;;
80392;SDS011;69719;45.544;10.218;2023-07-31T00:49:34;5.30;;;3.33;;
80392;SDS011;69719;45.544;10.218;2023-07-31T00:52:00;8.73;;;3.28;;
80392;SDS011;69719;45.544;10.218;2023-07-31T00:54:27;4.70;;;3.28;;
80392;SDS011;69719;45.544;10.218;2023-07-31T00:56:53;4.50;;;2.95;;
80392;SDS011;69719;45.544;10.218;2023-07-31T00:59:20;3.20;;;2.90;;
80392;SDS011;69719;45.544;10.218;2023-07-31T01:01:45;5.95;;;3.10;;
80392;SDS011;69719;45.544;10.218;2023-07-31T01:04:11;5.50;;;3.05;;
80392;SDS011;69719;45.544;10.218;2023-07-31T01:12:16;6.32;;;3.10;;
80392;SDS011;69719;45.544;10.218;2023-07-31T01:14:52;7.32;;;3.58;;
80392;SDS011;69719;45.544;10.218;2023-07-31T01:17:31;5.35;;;2.80;;
80392;SDS011;69719;45.544;10.218;2023-07-31T01:19:58;7.05;;;3.63;;
80392;SDS011;69719;45.544;10.218;2023-07-31T01:28:20;4.78;;;3.08;;
80392;SDS011;69719;45.544;10.218;2023-07-31T01:30:50;4.65;;;2.80;;
80392;SDS011;69719;45.544;10.218;2023-07-31T01:33:16;4.57;;;3.28;;
80392;SDS011;69719;45.544;10.218;2023-07-31T01:35:43;6.72;;;3.47;;
80392;SDS011;69719;45.544;10.218;2023-07-31T01:38:11;6.53;;;3.13;;
80392;SDS011;69719;45.544;10.218;2023-07-31T01:40:37;4.75;;;3.25;;
80392;SDS011;69719;45.544;10.218;2023-07-31T01:43:02;5.55;;;3.50;;
80392;SDS011;69719;45.544;10.218;2023-07-31T01:45:28;6.30;;;3.20;;
80392;SDS011;69719;45.544;10.218;2023-07-31T01:47:53;5.57;;;3.40;;
80392;SDS011;69719;45.544;10.218;2023-07-31T01:50:19;6.50;;;3.45;;
80392;SDS011;69719;45.544;10.218;2023-07-31T01:52:44;6.32;;;3.78;;
80392;SDS011;69719;45.544;10.218;2023-07-31T01:55:11;4.20;;;3.40;;
80392;SDS011;69719;45.544;10.218;2023-07-31T01:57:36;7.82;;;3.50;;
80392;SDS011;69719;45.544;10.218;2023-07-31T02:00:03;6.15;;;3.60;;
80392;SDS011;69719;45.544;10.218;2023-07-31T02:02:29;5.43;;;3.45;;
80392;SDS011;69719;45.544;10.218;2023-07-31T02:04:54;5.38;;;3.30;;
80392;SDS011;69719;45.544;10.218;2023-07-31T02:07:20;6.22;;;3.45;;
80392;SDS011;69719;45.544;10.218;2023-07-31T02:09:45;10.20;;;4.03;;
80392;SDS011;69719;45.544;10.218;2023-07-31T02:12:13;6.82;;;3.80;;
80392;SDS011;69719;45.544;10.218;2023-07-31T02:14:39;6.63;;;3.60;;
80392;SDS011;69719;45.544;10.218;2023-07-31T02:17:05;4.60;;;3.38;;
80392;SDS011;69719;45.544;10.218;2023-07-31T02:19:31;6.18;;;3.78;;
80392;SDS011;69719;45.544;10.218;2023-07-31T02:21:56;7.30;;;4.22;;
80392;SDS011;69719;45.544;10.218;2023-07-31T02:24:22;6.68;;;4.10;;
80392;SDS011;69719;45.544;10.218;2023-07-31T02:26:49;8.20;;;4.70;;
80392;SDS011;69719;45.544;10.218;2023-07-31T02:29:14;5.60;;;4.30;;
80392;SDS011;69719;45.544;10.218;2023-07-31T02:31:40;7.80;;;4.30;;
80392;SDS011;69719;45.544;10.218;2023-07-31T02:34:05;7.70;;;4.32;;
80392;SDS011;69719;45.544;10.218;2023-07-31T02:36:30;8.80;;;4.45;;
80392;SDS011;69719;45.544;10.218;2023-07-31T02:38:56;6.00;;;4.40;;
80392;SDS011;69719;45.544;10.218;2023-07-31T02:41:21;9.35;;;4.38;;
80392;SDS011;69719;45.544;10.218;2023-07-31T02:43:47;6.97;;;4.75;;
80392;SDS011;69719;45.544;10.218;2023-07-31T02:46:13;5.95;;;4.25;;
80392;SDS011;69719;45.544;10.218;2023-07-31T02:48:38;6.18;;;4.38;;
80392;SDS011;69719;45.544;10.218;2023-07-31T02:51:04;7.30;;;4.80;;
80392;SDS011;69719;45.544;10.218;2023-07-31T02:53:30;7.28;;;4.93;;
80392;SDS011;69719;45.544;10.218;2023-07-31T02:55:55;6.78;;;4.70;;
80392;SDS011;69719;45.544;10.218;2023-07-31T02:58:21;6.22;;;4.70;;
80392;SDS011;69719;45.544;10.218;2023-07-31T03:00:46;8.82;;;4.80;;
80392;SDS011;69719;45.544;10.218;2023-07-31T03:03:11;7.95;;;4.35;;
80392;SDS011;69719;45.544;10.218;2023-07-31T03:05:37;5.20;;;4.45;;
80392;SDS011;69719;45.544;10.218;2023-07-31T03:08:03;5.43;;;4.32;;
80392;SDS011;69719;45.544;10.218;2023-07-31T03:10:29;7.00;;;4.60;;
80392;SDS011;69719;45.544;10.218;2023-07-31T03:12:54;7.30;;;4.75;;
80392;SDS011;69719;45.544;10.218;2023-07-31T03:15:19;6.85;;;4.30;;
80392;SDS011;69719;45.544;10.218;2023-07-31T03:17:45;7.35;;;4.97;;
80392;SDS011;69719;45.544;10.218;2023-07-31T03:20:11;6.28;;;4.90;;
80392;SDS011;69719;45.544;10.218;2023-07-31T03:22:36;6.55;;;4.57;;
80392;SDS011;69719;45.544;10.218;2023-07-31T03:25:03;8.57;;;5.10;;
80392;SDS011;69719;45.544;10.218;2023-07-31T03:27:29;8.93;;;4.80;;
80392;SDS011;69719;45.544;10.218;2023-07-31T03:29:54;9.00;;;5.28;;
80392;SDS011;69719;45.544;10.218;2023-07-31T03:32:20;9.95;;;4.78;;
80392;SDS011;69719;45.544;10.218;2023-07-31T03:34:45;15.25;;;4.80;;
80392;SDS011;69719;45.544;10.218;2023-07-31T03:37:11;7.35;;;4.60;;
80392;SDS011;69719;45.544;10.218;2023-07-31T03:39:36;9.15;;;4.97;;
80392;SDS011;69719;45.544;10.218;2023-07-31T03:42:02;8.13;;;4.95;;
80392;SDS011;69719;45.544;10.218;2023-07-31T03:44:28;9.32;;;5.07;;
80392;SDS011;69719;45.544;10.218;2023-07-31T03:46:53;5.53;;;4.47;;
80392;SDS011;69719;45.544;10.218;2023-07-31T03:49:18;9.23;;;4.85;;
80392;SDS011;69719;45.544;10.218;2023-07-31T03:51:44;6.97;;;5.07;;
80392;SDS011;69719;45.544;10.218;2023-07-31T03:54:09;8.52;;;5.22;;
80392;SDS011;69719;45.544;10.218;2023-07-31T03:56:35;6.60;;;4.95;;
80392;SDS011;69719;45.544;10.218;2023-07-31T03:59:01;7.70;;;4.53;;
80392;SDS011;69719;45.544;10.218;2023-07-31T04:01:26;6.72;;;4.50;;
80392;SDS011;69719;45.544;10.218;2023-07-31T04:03:52;19.73;;;7.53;;
80392;SDS011;69719;45.544;10.218;2023-07-31T04:06:17;6.35;;;4.80;;
80392;SDS011;69719;45.544;10.218;2023-07-31T04:08:43;8.63;;;5.32;;
80392;SDS011;69719;45.544;10.218;2023-07-31T04:11:10;7.60;;;5.05;;
80392;SDS011;69719;45.544;10.218;2023-07-31T04:13:36;13.23;;;6.10;;
80392;SDS011;69719;45.544;10.218;2023-07-31T04:16:02;20.30;;;7.38;;
80392;SDS011;69719;45.544;10.218;2023-07-31T04:18:28;7.13;;;5.07;;
80392;SDS011;69719;45.544;10.218;2023-07-31T04:20:56;8.55;;;5.03;;
80392;SDS011;69719;45.544;10.218;2023-07-31T04:23:23;8.27;;;5.07;;
80392;SDS011;69719;45.544;10.218;2023-07-31T04:25:49;7.90;;;4.70;;
80392;SDS011;69719;45.544;10.218;2023-07-31T04:28:15;7.85;;;5.20;;
80392;SDS011;69719;45.544;10.218;2023-07-31T04:30:40;7.65;;;5.07;;
80392;SDS011;69719;45.544;10.218;2023-07-31T04:33:06;7.60;;;5.38;;
80392;SDS011;69719;45.544;10.218;2023-07-31T04:35:31;9.95;;;4.90;;
80392;SDS011;69719;45.544;10.218;2023-07-31T04:37:57;7.18;;;5.30;;
80392;SDS011;69719;45.544;10.218;2023-07-31T04:40:22;6.32;;;4.57;;
80392;SDS011;69719;45.544;10.218;2023-07-31T04:42:48;6.28;;;4.85;;
80392;SDS011;69719;45.544;10.218;2023-07-31T04:45:14;4.55;;;4.10;;
80392;SDS011;69719;45.544;10.218;2023-07-31T04:47:39;7.47;;;5.28;;
80392;SDS011;69719;45.544;10.218;2023-07-31T04:50:05;6.45;;;5.47;;
80392;SDS011;69719;45.544;10.218;2023-07-31T04:52:31;7.18;;;4.97;;
80392;SDS011;69719;45.544;10.218;2023-07-31T04:54:56;5.55;;;4.55;;
80392;SDS011;69719;45.544;10.218;2023-07-31T04:57:22;6.80;;;4.65;;
80392;SDS011;69719;45.544;10.218;2023-07-31T04:59:47;9.70;;;4.90;;
80392;SDS011;69719;45.544;10.218;2023-07-31T05:02:13;7.18;;;4.60;;
80392;SDS011;69719;45.544;10.218;2023-07-31T05:04:38;7.15;;;5.00;;
80392;SDS011;69719;45.544;10.218;2023-07-31T05:07:04;8.27;;;4.85;;
80392;SDS011;69719;45.544;10.218;2023-07-31T05:09:30;7.57;;;5.25;;
80392;SDS011;69719;45.544;10.218;2023-07-31T05:11:55;8.93;;;5.07;;
80392;SDS011;69719;45.544;10.218;2023-07-31T05:14:21;10.50;;;5.22;;
80392;SDS011;69719;45.544;10.218;2023-07-31T05:16:46;7.93;;;5.20;;
80392;SDS011;69719;45.544;10.218;2023-07-31T05:19:12;8.40;;;4.97;;
80392;SDS011;69719;45.544;10.218;2023-07-31T05:21:37;9.23;;;5.45;;
80392;SDS011;69719;45.544;10.218;2023-07-31T05:24:03;10.07;;;5.60;;
80392;SDS011;69719;45.544;10.218;2023-07-31T05:26:28;8.88;;;5.60;;
80392;SDS011;69719;45.544;10.218;2023-07-31T05:28:54;5.53;;;5.00;;
80392;SDS011;69719;45.544;10.218;2023-07-31T05:31:20;9.32;;;5.45;;
80392;SDS011;69719;45.544;10.218;2023-07-31T05:33:47;8.45;;;4.97;;
80392;SDS011;69719;45.544;10.218;2023-07-31T05:36:14;9.68;;;5.55;;
80392;SDS011;69719;45.544;10.218;2023-07-31T05:38:40;7.82;;;5.45;;
80392;SDS011;69719;45.544;10.218;2023-07-31T05:41:06;6.28;;;5.35;;
80392;SDS011;69719;45.544;10.218;2023-07-31T05:43:31;6.85;;;5.13;;
80392;SDS011;69719;45.544;10.218;2023-07-31T05:45:56;7.78;;;5.15;;
80392;SDS011;69719;45.544;10.218;2023-07-31T05:48:22;7.80;;;5.15;;
80392;SDS011;69719;45.544;10.218;2023-07-31T05:50:47;7.70;;;4.85;;
80392;SDS011;69719;45.544;10.218;2023-07-31T05:53:13;8.90;;;5.00;;
80392;SDS011;69719;45.544;10.218;2023-07-31T05:55:39;7.30;;;5.40;;
80392;SDS011;69719;45.544;10.218;2023-07-31T05:58:04;9.57;;;5.47;;
80392;SDS011;69719;45.544;10.218;2023-07-31T06:00:29;8.60;;;5.15;;
80392;SDS011;69719;45.544;10.218;2023-07-31T06:02:55;7.45;;;4.82;;
80392;SDS011;69719;45.544;10.218;2023-07-31T06:05:21;8.57;;;4.97;;
80392;SDS011;69719;45.544;10.218;2023-07-31T06:07:46;16.60;;;5.70;;
80392;SDS011;69719;45.544;10.218;2023-07-31T06:10:12;11.40;;;5.78;;
80392;SDS011;69719;45.544;10.218;2023-07-31T06:12:38;16.30;;;5.25;;
80392;SDS011;69719;45.544;10.218;2023-07-31T06:15:04;9.30;;;5.28;;
80392;SDS011;69719;45.544;10.218;2023-07-31T06:17:30;8.02;;;5.05;;
80392;SDS011;69719;45.544;10.218;2023-07-31T06:19:56;9.95;;;5.05;;
80392;SDS011;69719;45.544;10.218;2023-07-31T06:22:22;8.95;;;5.15;;
80392;SDS011;69719;45.544;10.218;2023-07-31T06:24:48;12.02;;;5.95;;
80392;SDS011;69719;45.544;10.218;2023-07-31T06:27:13;7.10;;;4.82;;
80392;SDS011;69719;45.544;10.218;2023-07-31T06:29:39;6.68;;;4.78;;
80392;SDS011;69719;45.544;10.218;2023-07-31T06:32:04;8.90;;;5.18;;
80392;SDS011;69719;45.544;10.218;2023-07-31T06:34:30;9.90;;;4.88;;
80392;SDS011;69719;45.544;10.218;2023-07-31T06:36:56;7.85;;;5.40;;
80392;SDS011;69719;45.544;10.218;2023-07-31T06:39:21;12.02;;;5.00;;
80392;SDS011;69719;45.544;10.218;2023-07-31T06:41:47;8.23;;;5.18;;
80392;SDS011;69719;45.544;10.218;2023-07-31T06:44:13;8.25;;;5.10;;
80392;SDS011;69719;45.544;10.218;2023-07-31T06:46:39;7.63;;;5.15;;
80392;SDS011;69719;45.544;10.218;2023-07-31T06:49:04;7.07;;;4.95;;
80392;SDS011;69719;45.544;10.218;2023-07-31T06:51:30;10.57;;;5.85;;
80392;SDS011;69719;45.544;10.218;2023-07-31T06:53:56;6.20;;;4.95;;
80392;SDS011;69719;45.544;10.218;2023-07-31T06:56:22;8.63;;;5.47;;
80392;SDS011;69719;45.544;10.218;2023-07-31T06:58:48;9.30;;;5.50;;
80392;SDS011;69719;45.544;10.218;2023-07-31T07:01:14;7.07;;;4.93;;
80392;SDS011;69719;45.544;10.218;2023-07-31T07:03:39;11.07;;;5.85;;
80392;SDS011;69719;45.544;10.218;2023-07-31T07:06:05;12.75;;;6.32;;
80392;SDS011;69719;45.544;10.218;2023-07-31T07:08:31;7.80;;;5.30;;
80392;SDS011;69719;45.544;10.218;2023-07-31T07:10:56;11.68;;;5.82;;
80392;SDS011;69719;45.544;10.218;2023-07-31T07:13:21;11.38;;;5.28;;
80392;SDS011;69719;45.544;10.218;2023-07-31T07:15:48;8.75;;;5.50;;
80392;SDS011;69719;45.544;10.218;2023-07-31T07:18:14;16.17;;;5.90;;
80392;SDS011;69719;45.544;10.218;2023-07-31T07:20:40;19.17;;;6.40;;
80392;SDS011;69719;45.544;10.218;2023-07-31T07:23:08;16.90;;;5.70;;
80392;SDS011;69719;45.544;10.218;2023-07-31T07:25:37;10.93;;;6.50;;
80392;SDS011;69719;45.544;10.218;2023-07-31T07:28:03;9.10;;;5.28;;
80392;SDS011;69719;45.544;10.218;2023-07-31T07:30:28;10.25;;;6.45;;
80392;SDS011;69719;45.544;10.218;2023-07-31T07:32:54;11.95;;;5.70;;
80392;SDS011;69719;45.544;10.218;2023-07-31T07:35:19;8.38;;;5.13;;
80392;SDS011;69719;45.544;10.218;2023-07-31T07:37:45;13.18;;;6.07;;
80392;SDS011;69719;45.544;10.218;2023-07-31T07:40:13;15.80;;;6.35;;
80392;SDS011;69719;45.544;10.218;2023-07-31T07:42:38;7.88;;;5.47;;
80392;SDS011;69719;45.544;10.218;2023-07-31T07:45:04;12.30;;;6.22;;
80392;SDS011;69719;45.544;10.218;2023-07-31T07:47:30;9.35;;;5.03;;
80392;SDS011;69719;45.544;10.218;2023-07-31T07:49:55;11.73;;;6.15;;
80392;SDS011;69719;45.544;10.218;2023-07-31T07:52:21;10.82;;;4.95;;
80392;SDS011;69719;45.544;10.218;2023-07-31T07:54:49;11.30;;;5.00;;
80392;SDS011;69719;45.544;10.218;2023-07-31T07:57:15;9.30;;;5.50;;
80392;SDS011;69719;45.544;10.218;2023-07-31T07:59:41;9.98;;;5.35;;
80392;SDS011;69719;45.544;10.218;2023-07-31T08:02:07;13.63;;;5.72;;
80392;SDS011;69719;45.544;10.218;2023-07-31T08:04:32;12.15;;;5.28;;
80392;SDS011;69719;45.544;10.218;2023-07-31T08:06:58;10.32;;;5.25;;
80392;SDS011;69719;45.544;10.218;2023-07-31T08:09:23;18.48;;;6.60;;
80392;SDS011;69719;45.544;10.218;2023-07-31T08:11:49;13.90;;;6.38;;
80392;SDS011;69719;45.544;10.218;2023-07-31T08:14:14;9.45;;;5.35;;
80392;SDS011;69719;45.544;10.218;2023-07-31T08:16:40;8.52;;;3.50;;
80392;SDS011;69719;45.544;10.218;2023-07-31T08:19:05;5.35;;;2.80;;
80392;SDS011;69719;45.544;10.218;2023-07-31T08:21:31;5.47;;;2.85;;
80392;SDS011;69719;45.544;10.218;2023-07-31T08:23:57;6.10;;;3.08;;
80392;SDS011;69719;45.544;10.218;2023-07-31T08:26:22;3.60;;;2.65;;
80392;SDS011;69719;45.544;10.218;2023-07-31T08:28:48;5.57;;;3.20;;
80392;SDS011;69719;45.544;10.218;2023-07-31T08:31:13;5.82;;;2.80;;
80392;SDS011;69719;45.544;10.218;2023-07-31T08:33:39;6.47;;;2.67;;
80392;SDS011;69719;45.544;10.218;2023-07-31T08:36:07;6.15;;;3.03;;
80392;SDS011;69719;45.544;10.218;2023-07-31T08:38:33;6.50;;;2.90;;
80392;SDS011;69719;45.544;10.218;2023-07-31T08:40:59;2.15;;;1.83;;
80392;SDS011;69719;45.544;10.218;2023-07-31T08:43:27;4.85;;;2.20;;
80392;SDS011;69719;45.544;10.218;2023-07-31T08:45:53;3.28;;;2.20;;
80392;SDS011;69719;45.544;10.218;2023-07-31T08:48:20;5.60;;;2.38;;
80392;SDS011;69719;45.544;10.218;2023-07-31T08:50:47;4.28;;;2.15;;
80392;SDS011;69719;45.544;10.218;2023-07-31T08:53:13;3.22;;;2.13;;
80392;SDS011;69719;45.544;10.218;2023-07-31T08:55:39;3.03;;;2.10;;
80392;SDS011;69719;45.544;10.218;2023-07-31T08:58:05;5.57;;;2.00;;
80392;SDS011;69719;45.544;10.218;2023-07-31T09:00:34;4.38;;;1.80;;
80392;SDS011;69719;45.544;10.218;2023-07-31T09:03:34;3.33;;;2.00;;
80392;SDS011;69719;45.544;10.218;2023-07-31T09:05:53;4.30;;;2.30;;
80392;SDS011;69719;45.544;10.218;2023-07-31T09:08:21;2.38;;;2.00;;
80392;SDS011;69719;45.544;10.218;2023-07-31T09:10:47;5.05;;;1.90;;
80392;SDS011;69719;45.544;10.218;2023-07-31T09:13:15;6.32;;;1.88;;
80392;SDS011;69719;45.544;10.218;2023-07-31T09:15:42;4.47;;;2.10;;
80392;SDS011;69719;45.544;10.218;2023-07-31T09:18:09;5.20;;;2.05;;
80392;SDS011;69719;45.544;10.218;2023-07-31T09:20:34;4.05;;;2.20;;
80392;SDS011;69719;45.544;10.218;2023-07-31T09:25:32;4.65;;;2.20;;
80392;SDS011;69719;45.544;10.218;2023-07-31T09:28:07;5.03;;;2.20;;
80392;SDS011;69719;45.544;10.218;2023-07-31T09:30:44;2.17;;;1.98;;
80392;SDS011;69719;45.544;10.218;2023-07-31T09:33:14;3.20;;;2.15;;
80392;SDS011;69719;45.544;10.218;2023-07-31T09:35:40;2.85;;;2.30;;
80392;SDS011;69719;45.544;10.218;2023-07-31T09:38:10;2.53;;;2.00;;
80392;SDS011;69719;45.544;10.218;2023-07-31T09:40:39;5.20;;;2.50;;
80392;SDS011;69719;45.544;10.218;2023-07-31T09:43:06;3.05;;;2.30;;
80392;SDS011;69719;45.544;10.218;2023-07-31T09:45:34;2.53;;;2.25;;
80392;SDS011;69719;45.544;10.218;2023-07-31T09:48:06;6.32;;;2.85;;
80392;SDS011;69719;45.544;10.218;2023-07-31T09:50:41;6.07;;;2.22;;
80392;SDS011;69719;45.544;10.218;2023-07-31T09:53:08;2.78;;;2.10;;
80392;SDS011;69719;45.544;10.218;2023-07-31T09:55:34;4.20;;;2.10;;
80392;SDS011;69719;45.544;10.218;2023-07-31T09:58:07;7.63;;;4.18;;
80392;SDS011;69719;45.544;10.218;2023-07-31T10:00:34;7.10;;;2.33;;
80392;SDS011;69719;45.544;10.218;2023-07-31T10:03:01;3.05;;;1.88;;
80392;SDS011;69719;45.544;10.218;2023-07-31T10:05:34;5.25;;;2.15;;
80392;SDS011;69719;45.544;10.218;2023-07-31T10:08:01;2.92;;;2.13;;
80392;SDS011;69719;45.544;10.218;2023-07-31T10:10:28;5.45;;;2.40;;
80392;SDS011;69719;45.544;10.218;2023-07-31T10:12:54;3.10;;;2.40;;
80392;SDS011;69719;45.544;10.218;2023-07-31T10:15:21;3.10;;;2.80;;
80392;SDS011;69719;45.544;10.218;2023-07-31T10:17:48;3.50;;;2.38;;
80392;SDS011;69719;45.544;10.218;2023-07-31T10:20:15;3.28;;;2.70;;
80392;SDS011;69719;45.544;10.218;2023-07-31T10:22:44;3.00;;;2.33;;
80392;SDS011;69719;45.544;10.218;2023-07-31T10:25:13;2.85;;;2.30;;
80392;SDS011;69719;45.544;10.218;2023-07-31T10:27:40;2.15;;;1.92;;
80392;SDS011;69719;45.544;10.218;2023-07-31T10:30:14;4.43;;;2.45;;
80392;SDS011;69719;45.544;10.218;2023-07-31T10:32:41;2.15;;;1.95;;
80392;SDS011;69719;45.544;10.218;2023-07-31T10:35:09;17.10;;;3.72;;
80392;SDS011;69719;45.544;10.218;2023-07-31T10:37:37;2.30;;;2.10;;
80392;SDS011;69719;45.544;10.218;2023-07-31T10:40:10;2.45;;;1.67;;
80392;SDS011;69719;45.544;10.218;2023-07-31T10:42:52;4.57;;;2.28;;
80392;SDS011;69719;45.544;10.218;2023-07-31T10:45:32;6.70;;;2.13;;
80392;SDS011;69719;45.544;10.218;2023-07-31T10:48:35;2.50;;;2.30;;
80392;SDS011;69719;45.544;10.218;2023-07-31T10:50:58;4.80;;;2.70;;
80392;SDS011;69719;45.544;10.218;2023-07-31T10:53:24;3.15;;;2.38;;
80392;SDS011;69719;45.544;10.218;2023-07-31T10:55:52;3.03;;;2.45;;
80392;SDS011;69719;45.544;10.218;2023-07-31T10:58:18;3.13;;;2.70;;
80392;SDS011;69719;45.544;10.218;2023-07-31T11:00:46;4.47;;;3.00;;
80392;SDS011;69719;45.544;10.218;2023-07-31T11:03:15;3.05;;;2.20;;
80392;SDS011;69719;45.544;10.218;2023-07-31T11:08:23;4.05;;;2.40;;
80392;SDS011;69719;45.544;10.218;2023-07-31T11:15:57;4.80;;;2.50;;
80392;SDS011;69719;45.544;10.218;2023-07-31T11:18:23;5.07;;;2.95;;
80392;SDS011;69719;45.544;10.218;2023-07-31T11:20:49;5.50;;;2.70;;
80392;SDS011;69719;45.544;10.218;2023-07-31T11:23:15;19.55;;;2.97;;
80392;SDS011;69719;45.544;10.218;2023-07-31T11:25:42;4.95;;;2.58;;
80392;SDS011;69719;45.544;10.218;2023-07-31T11:28:10;4.10;;;2.88;;
80392;SDS011;69719;45.544;10.218;2023-07-31T11:30:37;8.85;;;3.78;;
80392;SDS011;69719;45.544;10.218;2023-07-31T11:33:05;5.43;;;3.10;;
80392;SDS011;69719;45.544;10.218;2023-07-31T11:35:33;5.90;;;3.25;;
80392;SDS011;69719;45.544;10.218;2023-07-31T11:38:00;9.30;;;3.38;;
80392;SDS011;69719;45.544;10.218;2023-07-31T11:40:30;11.98;;;6.40;;
80392;SDS011;69719;45.544;10.218;2023-07-31T11:43:17;5.18;;;3.53;;
80392;SDS011;69719;45.544;10.218;2023-07-31T11:45:57;8.35;;;4.10;;
80392;SDS011;69719;45.544;10.218;2023-07-31T11:48:24;7.68;;;3.75;;
80392;SDS011;69719;45.544;10.218;2023-07-31T11:50:57;10.15;;;4.72;;
80392;SDS011;69719;45.544;10.218;2023-07-31T11:53:34;11.98;;;3.75;;
80392;SDS011;69719;45.544;10.218;2023-07-31T11:56:11;8.95;;;3.53;;
80392;SDS011;69719;45.544;10.218;2023-07-31T11:58:39;3.88;;;3.00;;
80392;SDS011;69719;45.544;10.218;2023-07-31T12:01:08;6.25;;;3.40;;
80392;SDS011;69719;45.544;10.218;2023-07-31T12:03:34;4.53;;;3.40;;
80392;SDS011;69719;45.544;10.218;2023-07-31T12:06:00;7.30;;;3.08;;
80392;SDS011;69719;45.544;10.218;2023-07-31T12:08:26;10.98;;;3.10;;
80392;SDS011;69719;45.544;10.218;2023-07-31T12:10:52;8.15;;;3.35;;
80392;SDS011;69719;45.544;10.218;2023-07-31T12:13:25;6.20;;;3.60;;
80392;SDS011;69719;45.544;10.218;2023-07-31T12:15:55;5.38;;;3.33;;
80392;SDS011;69719;45.544;10.218;2023-07-31T12:18:23;5.95;;;3.15;;
80392;SDS011;69719;45.544;10.218;2023-07-31T12:23:24;4.07;;;3.35;;
80392;SDS011;69719;45.544;10.218;2023-07-31T12:26:11;4.70;;;3.80;;
80392;SDS011;69719;45.544;10.218;2023-07-31T12:31:33;9.23;;;3.95;;
80392;SDS011;69719;45.544;10.218;2023-07-31T12:34:02;4.20;;;3.17;;
80392;SDS011;69719;45.544;10.218;2023-07-31T12:36:41;4.40;;;3.30;;
80392;SDS011;69719;45.544;10.218;2023-07-31T12:39:07;7.05;;;3.78;;
80392;SDS011;69719;45.544;10.218;2023-07-31T12:41:33;7.22;;;3.63;;
80392;SDS011;69719;45.544;10.218;2023-07-31T12:43:58;11.15;;;5.00;;
80392;SDS011;69719;45.544;10.218;2023-07-31T12:46:24;6.88;;;3.58;;
80392;SDS011;69719;45.544;10.218;2023-07-31T12:48:49;4.82;;;3.90;;
80392;SDS011;69719;45.544;10.218;2023-07-31T12:51:15;6.20;;;3.28;;
80392;SDS011;69719;45.544;10.218;2023-07-31T12:53:40;5.68;;;3.35;;
80392;SDS011;69719;45.544;10.218;2023-07-31T12:56:06;4.00;;;3.13;;
80392;SDS011;69719;45.544;10.218;2023-07-31T12:58:31;7.68;;;3.30;;
80392;SDS011;69719;45.544;10.218;2023-07-31T13:00:57;6.47;;;3.30;;
80392;SDS011;69719;45.544;10.218;2023-07-31T13:03:22;5.85;;;3.22;;
80392;SDS011;69719;45.544;10.218;2023-07-31T13:05:48;5.40;;;3.35;;
80392;SDS011;69719;45.544;10.218;2023-07-31T13:08:14;6.88;;;3.30;;
80392;SDS011;69719;45.544;10.218;2023-07-31T13:10:41;13.00;;;4.53;;
80392;SDS011;69719;45.544;10.218;2023-07-31T13:13:06;5.65;;;3.40;;
80392;SDS011;69719;45.544;10.218;2023-07-31T13:15:32;7.85;;;3.92;;
80392;SDS011;69719;45.544;10.218;2023-07-31T13:17:57;10.52;;;4.18;;
80392;SDS011;69719;45.544;10.218;2023-07-31T13:20:23;3.85;;;3.08;;
80392;SDS011;69719;45.544;10.218;2023-07-31T13:22:51;3.45;;;3.03;;
80392;SDS011;69719;45.544;10.218;2023-07-31T13:25:17;7.57;;;3.50;;
80392;SDS011;69719;45.544;10.218;2023-07-31T13:27:42;3.85;;;3.30;;
80392;SDS011;69719;45.544;10.218;2023-07-31T13:30:08;5.45;;;3.85;;
80392;SDS011;69719;45.544;10.218;2023-07-31T13:32:34;6.47;;;4.43;;
80392;SDS011;69719;45.544;10.218;2023-07-31T13:35:03;7.35;;;3.40;;
80392;SDS011;69719;45.544;10.218;2023-07-31T13:37:33;11.40;;;4.63;;
80392;SDS011;69719;45.544;10.218;2023-07-31T13:39:59;8.05;;;3.28;;
80392;SDS011;69719;45.544;10.218;2023-07-31T13:42:25;5.43;;;3.25;;
80392;SDS011;69719;45.544;10.218;2023-07-31T13:44:50;4.95;;;3.00;;
80392;SDS011;69719;45.544;10.218;2023-07-31T13:47:16;11.30;;;5.18;;
80392;SDS011;69719;45.544;10.218;2023-07-31T13:49:46;11.23;;;4.65;;
80392;SDS011;69719;45.544;10.218;2023-07-31T13:52:13;13.10;;;7.13;;
80392;SDS011;69719;45.544;10.218;2023-07-31T13:54:39;9.73;;;4.05;;
80392;SDS011;69719;45.544;10.218;2023-07-31T13:57:08;21.80;;;5.68;;
80392;SDS011;69719;45.544;10.218;2023-07-31T13:59:35;8.07;;;4.07;;
80392;SDS011;69719;45.544;10.218;2023-07-31T14:02:04;5.30;;;3.35;;
80392;SDS011;69719;45.544;10.218;2023-07-31T14:04:30;11.68;;;5.95;;
80392;SDS011;69719;45.544;10.218;2023-07-31T14:06:55;6.70;;;4.25;;
80392;SDS011;69719;45.544;10.218;2023-07-31T14:09:22;5.82;;;3.53;;
80392;SDS011;69719;45.544;10.218;2023-07-31T14:11:47;12.80;;;4.43;;
80392;SDS011;69719;45.544;10.218;2023-07-31T14:14:13;6.88;;;4.13;;
80392;SDS011;69719;45.544;10.218;2023-07-31T14:16:39;5.80;;;3.40;;
80392;SDS011;69719;45.544;10.218;2023-07-31T14:19:04;8.10;;;3.67;;
80392;SDS011;69719;45.544;10.218;2023-07-31T14:21:30;10.60;;;5.47;;
80392;SDS011;69719;45.544;10.218;2023-07-31T14:23:55;5.97;;;3.60;;
80392;SDS011;69719;45.544;10.218;2023-07-31T14:26:21;6.68;;;3.15;;
80392;SDS011;69719;45.544;10.218;2023-07-31T14:28:46;5.32;;;3.10;;
80392;SDS011;69719;45.544;10.218;2023-07-31T14:31:12;7.10;;;4.07;;
80392;SDS011;69719;45.544;10.218;2023-07-31T14:33:37;8.80;;;4.57;;
80392;SDS011;69719;45.544;10.218;2023-07-31T14:36:03;4.80;;;3.55;;
80392;SDS011;69719;45.544;10.218;2023-07-31T14:38:29;7.00;;;3.00;;
80392;SDS011;69719;45.544;10.218;2023-07-31T14:44:16;6.47;;;3.63;;
80392;SDS011;69719;45.544;10.218;2023-07-31T14:46:41;7.55;;;3.38;;
80392;SDS011;69719;45.544;10.218;2023-07-31T14:49:07;15.68;;;4.55;;
80392;SDS011;69719;45.544;10.218;2023-07-31T14:51:32;9.75;;;3.35;;
80392;SDS011;69719;45.544;10.218;2023-07-31T14:53:58;20.15;;;4.65;;
80392;SDS011;69719;45.544;10.218;2023-07-31T14:56:25;9.05;;;3.17;;
80392;SDS011;69719;45.544;10.218;2023-07-31T14:58:51;7.00;;;3.40;;
80392;SDS011;69719;45.544;10.218;2023-07-31T15:14:52;6.65;;;3.22;;